Terminal Aerodrome Forecast
Issued by NWS

Home | Current Version | Previous Version | Text Only | Print | Product List | Glossary On
Versions: 1 2 3 4 5 6 7 8 9 10 11 12 13 14 15 16 17 18 19 20 21 22 23
491
FTUS43 KIND 032320
TAFHUF
TAF
KHUF 032320Z 0400/0424 25005KT P6SM BKN100
     FM041100 23008KT P6SM SHRA OVC035
     FM041400 26012KT P6SM SHRA OVC020
     FM041500 28013G21KT P6SM VCSH BKN015
     FM041800 33015G24KT P6SM VCSH BKN020
     FM042100 33015G24KT P6SM BKN035=

USA.gov is the U.S. government's official web portal to all federal, state and local government web resources and services.